sensor_id;sensor_type;location;lat;lon;timestamp;pressure;altitude;pressure_sealevel;temperature;humidity
36664;BME280;53333;51.976;20.144;2023-04-27T00:00:49;100246.75;;;5.18;52.58
36664;BME280;53333;51.976;20.144;2023-04-27T00:03:24;100249.44;;;5.17;52.70
36664;BME280;53333;51.976;20.144;2023-04-27T00:05:57;100248.56;;;5.16;52.70
36664;BME280;53333;51.976;20.144;2023-04-27T00:08:30;100246.84;;;5.14;52.90
36664;BME280;53333;51.976;20.144;2023-04-27T00:11:03;100248.66;;;5.13;52.81
36664;BME280;53333;51.976;20.144;2023-04-27T00:13:37;100251.38;;;5.10;52.78
36664;BME280;53333;51.976;20.144;2023-04-27T00:16:10;100247.94;;;5.06;52.90
36664;BME280;53333;51.976;20.144;2023-04-27T00:18:44;100242.72;;;5.03;53.12
36664;BME280;53333;51.976;20.144;2023-04-27T00:21:17;100250.75;;;4.99;53.09
36664;BME280;53333;51.976;20.144;2023-04-27T00:23:50;100245.50;;;4.97;53.32
36664;BME280;53333;51.976;20.144;2023-04-27T00:26:23;100247.31;;;4.95;53.20
36664;BME280;53333;51.976;20.144;2023-04-27T00:28:57;100243.94;;;4.90;53.60
36664;BME280;53333;51.976;20.144;2023-04-27T00:31:30;100250.94;;;4.91;53.33
36664;BME280;53333;51.976;20.144;2023-04-27T00:34:04;100253.63;;;4.89;53.42
36664;BME280;53333;51.976;20.144;2023-04-27T00:36:37;100260.72;;;4.89;53.56
36664;BME280;53333;51.976;20.144;2023-04-27T00:39:10;100260.78;;;4.86;53.63
36664;BME280;53333;51.976;20.144;2023-04-27T00:41:44;100263.19;;;4.97;53.03
36664;BME280;53333;51.976;20.144;2023-04-27T00:44:21;100260.00;;;4.82;53.45
36664;BME280;53333;51.976;20.144;2023-04-27T00:46:55;100260.09;;;4.78;53.66
36664;BME280;53333;51.976;20.144;2023-04-27T00:49:29;100264.53;;;4.77;53.63
36664;BME280;53333;51.976;20.144;2023-04-27T00:52:02;100270.75;;;4.75;53.82
36664;BME280;53333;51.976;20.144;2023-04-27T00:54:35;100267.31;;;4.71;53.95
36664;BME280;53333;51.976;20.144;2023-04-27T00:57:08;100268.25;;;4.68;53.98
36664;BME280;53333;51.976;20.144;2023-04-27T00:59:41;100269.13;;;4.67;54.04
36664;BME280;53333;51.976;20.144;2023-04-27T01:02:16;100272.69;;;4.66;54.15
36664;BME280;53333;51.976;20.144;2023-04-27T01:04:51;100270.94;;;4.65;54.05
36664;BME280;53333;51.976;20.144;2023-04-27T01:07:25;100263.97;;;4.63;54.28
36664;BME280;53333;51.976;20.144;2023-04-27T01:09:58;100268.38;;;4.62;54.31
36664;BME280;53333;51.976;20.144;2023-04-27T01:12:30;100265.75;;;4.61;54.30
36664;BME280;53333;51.976;20.144;2023-04-27T01:15:05;100268.44;;;4.59;54.54
36664;BME280;53333;51.976;20.144;2023-04-27T01:17:38;100269.41;;;4.57;54.70
36664;BME280;53333;51.976;20.144;2023-04-27T01:20:13;100268.50;;;4.56;54.75
36664;BME280;53333;51.976;20.144;2023-04-27T01:22:47;100268.50;;;4.56;54.65
36664;BME280;53333;51.976;20.144;2023-04-27T01:25:21;100263.25;;;4.54;54.61
36664;BME280;53333;51.976;20.144;2023-04-27T01:27:54;100266.81;;;4.53;54.70
36664;BME280;53333;51.976;20.144;2023-04-27T01:30:27;100270.34;;;4.52;54.89
36664;BME280;53333;51.976;20.144;2023-04-27T01:33:02;100273.94;;;4.50;55.00
36664;BME280;53333;51.976;20.144;2023-04-27T01:35:35;100272.16;;;4.50;55.11
36664;BME280;53333;51.976;20.144;2023-04-27T01:38:08;100266.06;;;4.48;55.02
36664;BME280;53333;51.976;20.144;2023-04-27T01:40:42;100266.94;;;4.47;55.07
36664;BME280;53333;51.976;20.144;2023-04-27T01:43:16;100270.53;;;4.45;55.22
36664;BME280;53333;51.976;20.144;2023-04-27T01:45:49;100267.91;;;4.43;55.20
36664;BME280;53333;51.976;20.144;2023-04-27T01:48:22;100271.47;;;4.42;55.38
36664;BME280;53333;51.976;20.144;2023-04-27T01:50:55;100282.94;;;4.41;55.34
36664;BME280;53333;51.976;20.144;2023-04-27T01:53:28;100278.59;;;4.39;55.54
36664;BME280;53333;51.976;20.144;2023-04-27T01:56:03;100281.25;;;4.37;55.27
36664;BME280;53333;51.976;20.144;2023-04-27T01:58:37;100281.25;;;4.37;55.54
36664;BME280;53333;51.976;20.144;2023-04-27T02:01:10;100283.94;;;4.35;55.37
36664;BME280;53333;51.976;20.144;2023-04-27T02:03:43;100279.56;;;4.34;55.47
36664;BME280;53333;51.976;20.144;2023-04-27T02:06:16;100286.72;;;4.31;55.72
36664;BME280;53333;51.976;20.144;2023-04-27T02:08:50;100288.50;;;4.29;55.59
36664;BME280;53333;51.976;20.144;2023-04-27T02:11:24;100273.59;;;4.25;55.60
36664;BME280;53333;51.976;20.144;2023-04-27T02:13:58;100278.94;;;4.23;55.71
36664;BME280;53333;51.976;20.144;2023-04-27T02:16:34;100280.72;;;4.21;55.86
36664;BME280;53333;51.976;20.144;2023-04-27T02:19:07;100279.00;;;4.20;55.75
36664;BME280;53333;51.976;20.144;2023-04-27T02:21:40;100282.56;;;4.17;55.86
36664;BME280;53333;51.976;20.144;2023-04-27T02:24:13;100286.16;;;4.15;55.91
36664;BME280;53333;51.976;20.144;2023-04-27T02:26:50;100285.25;;;4.14;55.95
36664;BME280;53333;51.976;20.144;2023-04-27T02:29:22;100282.66;;;4.13;56.10
36664;BME280;53333;51.976;20.144;2023-04-27T02:31:56;100282.69;;;4.11;56.05
36664;BME280;53333;51.976;20.144;2023-04-27T02:34:29;100286.25;;;4.10;55.96
36664;BME280;53333;51.976;20.144;2023-04-27T02:37:02;100290.69;;;4.07;56.18
36664;BME280;53333;51.976;20.144;2023-04-27T02:39:35;100288.09;;;4.05;56.41
36664;BME280;53333;51.976;20.144;2023-04-27T02:42:11;100283.78;;;4.01;56.39
36664;BME280;53333;51.976;20.144;2023-04-27T02:44:46;100286.41;;;4.01;56.39
36664;BME280;53333;51.976;20.144;2023-04-27T02:47:19;100289.06;;;4.01;56.44
36664;BME280;53333;51.976;20.144;2023-04-27T02:49:52;100288.19;;;4.00;56.42
36664;BME280;53333;51.976;20.144;2023-04-27T02:52:25;100285.56;;;4.00;56.47
36664;BME280;53333;51.976;20.144;2023-04-27T02:54:58;100292.56;;;4.02;56.72
36664;BME280;53333;51.976;20.144;2023-04-27T02:57:32;100289.97;;;3.98;56.72
36664;BME280;53333;51.976;20.144;2023-04-27T03:00:06;100288.22;;;3.99;56.68
36664;BME280;53333;51.976;20.144;2023-04-27T03:02:40;100284.72;;;3.97;56.70
36664;BME280;53333;51.976;20.144;2023-04-27T03:05:13;100290.03;;;3.95;56.62
36664;BME280;53333;51.976;20.144;2023-04-27T03:07:46;100291.81;;;3.95;56.86
36664;BME280;53333;51.976;20.144;2023-04-27T03:10:19;100305.94;;;3.94;56.78
36664;BME280;53333;51.976;20.144;2023-04-27T03:12:53;100299.78;;;3.93;56.96
36664;BME280;53333;51.976;20.144;2023-04-27T03:15:26;100293.59;;;3.94;56.91
36664;BME280;53333;51.976;20.144;2023-04-27T03:17:59;100305.06;;;3.93;56.75
36664;BME280;53333;51.976;20.144;2023-04-27T03:20:32;100302.41;;;3.95;56.81
36664;BME280;53333;51.976;20.144;2023-04-27T03:23:05;100309.44;;;3.96;56.89
36664;BME280;53333;51.976;20.144;2023-04-27T03:25:38;100312.97;;;3.95;56.94
36664;BME280;53333;51.976;20.144;2023-04-27T03:28:13;100308.53;;;3.95;56.93
36664;BME280;53333;51.976;20.144;2023-04-27T03:30:46;100315.59;;;3.95;56.89
36664;BME280;53333;51.976;20.144;2023-04-27T03:33:19;100315.63;;;3.93;56.95
36664;BME280;53333;51.976;20.144;2023-04-27T03:35:55;100320.09;;;3.91;57.30
36664;BME280;53333;51.976;20.144;2023-04-27T03:38:28;100319.19;;;3.91;57.26
36664;BME280;53333;51.976;20.144;2023-04-27T03:41:01;100317.47;;;3.90;57.04
36664;BME280;53333;51.976;20.144;2023-04-27T03:43:36;100319.25;;;3.88;57.22
36664;BME280;53333;51.976;20.144;2023-04-27T03:46:09;100317.56;;;3.85;57.14
36664;BME280;53333;51.976;20.144;2023-04-27T03:48:42;100325.50;;;3.85;57.36
36664;BME280;53333;51.976;20.144;2023-04-27T03:51:17;100322.84;;;3.85;57.38
36664;BME280;53333;51.976;20.144;2023-04-27T03:53:50;100326.31;;;3.87;57.32
36664;BME280;53333;51.976;20.144;2023-04-27T03:56:23;100324.47;;;3.91;57.41
36664;BME280;53333;51.976;20.144;2023-04-27T03:58:58;100327.03;;;3.95;57.31
36664;BME280;53333;51.976;20.144;2023-04-27T04:01:36;100323.44;;;3.99;57.45
36664;BME280;53333;51.976;20.144;2023-04-27T04:04:10;100329.56;;;4.02;57.42
36664;BME280;53333;51.976;20.144;2023-04-27T04:06:45;100327.72;;;4.07;57.17
36664;BME280;53333;51.976;20.144;2023-04-27T04:09:18;100336.47;;;4.10;57.31
36664;BME280;53333;51.976;20.144;2023-04-27T04:11:54;100329.34;;;4.14;57.23
36664;BME280;53333;51.976;20.144;2023-04-27T04:14:29;100328.34;;;4.19;57.26
36664;BME280;53333;51.976;20.144;2023-04-27T04:17:02;100333.47;;;4.27;57.15
36664;BME280;53333;51.976;20.144;2023-04-27T04:19:35;100342.16;;;4.34;56.92
36664;BME280;53333;51.976;20.144;2023-04-27T04:22:08;100342.00;;;4.42;57.09
36664;BME280;53333;51.976;20.144;2023-04-27T04:24:42;100343.38;;;4.61;56.39
36664;BME280;53333;51.976;20.144;2023-04-27T04:27:15;100346.06;;;4.60;56.50
36664;BME280;53333;51.976;20.144;2023-04-27T04:29:49;100345.88;;;4.67;56.63
36664;BME280;53333;51.976;20.144;2023-04-27T04:32:22;100352.75;;;4.76;56.39
36664;BME280;53333;51.976;20.144;2023-04-27T04:34:55;100337.56;;;4.84;56.58
36664;BME280;53333;51.976;20.144;2023-04-27T04:37:31;100343.56;;;4.93;56.56
36664;BME280;53333;51.976;20.144;2023-04-27T04:40:06;100344.22;;;5.02;56.35
36664;BME280;53333;51.976;20.144;2023-04-27T04:42:41;100347.53;;;5.12;56.11
36664;BME280;53333;51.976;20.144;2023-04-27T04:45:15;100349.13;;;5.19;56.15
36664;BME280;53333;51.976;20.144;2023-04-27T04:47:48;100351.56;;;5.28;56.03
36664;BME280;53333;51.976;20.144;2023-04-27T04:50:22;100350.47;;;5.37;55.91
36664;BME280;53333;51.976;20.144;2023-04-27T04:52:55;100348.41;;;5.49;55.86
36664;BME280;53333;51.976;20.144;2023-04-27T04:55:28;100350.84;;;5.58;55.54
36664;BME280;53333;51.976;20.144;2023-04-27T04:58:01;100359.38;;;5.69;55.66
36664;BME280;53333;51.976;20.144;2023-04-27T05:00:35;100353.84;;;5.78;55.55
36664;BME280;53333;51.976;20.144;2023-04-27T05:03:08;100358.00;;;5.89;55.33
36664;BME280;53333;51.976;20.144;2023-04-27T05:05:41;100356.06;;;5.97;55.09
36664;BME280;53333;51.976;20.144;2023-04-27T05:08:14;100365.59;;;6.04;55.04
36664;BME280;53333;51.976;20.144;2023-04-27T05:10:48;100359.16;;;6.14;55.03
36664;BME280;53333;51.976;20.144;2023-04-27T05:13:22;100372.97;;;6.26;54.73
36664;BME280;53333;51.976;20.144;2023-04-27T05:15:57;100357.59;;;6.39;54.66
36664;BME280;53333;51.976;20.144;2023-04-27T05:18:35;100364.22;;;6.53;54.61
36664;BME280;53333;51.976;20.144;2023-04-27T05:21:12;100355.81;;;6.69;54.51
36664;BME280;53333;51.976;20.144;2023-04-27T05:23:46;100363.31;;;6.84;54.10
36664;BME280;53333;51.976;20.144;2023-04-27T05:26:19;100357.63;;;6.97;53.83
36664;BME280;53333;51.976;20.144;2023-04-27T05:28:52;100356.47;;;7.07;53.72
36664;BME280;53333;51.976;20.144;2023-04-27T05:31:26;100354.31;;;7.18;53.32
36664;BME280;53333;51.976;20.144;2023-04-27T05:33:59;100361.06;;;7.28;53.05
36664;BME280;53333;51.976;20.144;2023-04-27T05:36:32;100366.81;;;7.43;52.92
36664;BME280;53333;51.976;20.144;2023-04-27T05:39:06;100367.31;;;7.54;52.55
36664;BME280;53333;51.976;20.144;2023-04-27T05:41:39;100367.13;;;7.60;52.41
36664;BME280;53333;51.976;20.144;2023-04-27T05:44:12;100381.03;;;7.69;52.13
36664;BME280;53333;51.976;20.144;2023-04-27T05:46:48;100372.69;;;7.79;52.37
36664;BME280;53333;51.976;20.144;2023-04-27T05:49:21;100379.28;;;7.94;52.20
36664;BME280;53333;51.976;20.144;2023-04-27T05:51:54;100383.22;;;8.09;51.95
36664;BME280;53333;51.976;20.144;2023-04-27T05:54:29;100382.84;;;8.20;51.71
36664;BME280;53333;51.976;20.144;2023-04-27T05:57:02;100378.00;;;8.31;51.58
36664;BME280;53333;51.976;20.144;2023-04-27T05:59:35;100388.28;;;8.41;51.27
36664;BME280;53333;51.976;20.144;2023-04-27T06:02:09;100385.28;;;8.51;51.02
36664;BME280;53333;51.976;20.144;2023-04-27T06:04:42;100385.00;;;8.59;50.82
36664;BME280;53333;51.976;20.144;2023-04-27T06:07:15;100389.09;;;8.68;50.48
36664;BME280;53333;51.976;20.144;2023-04-27T06:09:48;100391.66;;;8.71;50.45
36664;BME280;53333;51.976;20.144;2023-04-27T06:12:21;100383.50;;;8.76;50.19
36664;BME280;53333;51.976;20.144;2023-04-27T06:14:54;100392.28;;;8.79;50.43
36664;BME280;53333;51.976;20.144;2023-04-27T06:17:28;100390.13;;;8.89;50.43
36664;BME280;53333;51.976;20.144;2023-04-27T06:20:01;100386.91;;;9.03;50.08
36664;BME280;53333;51.976;20.144;2023-04-27T06:22:37;100390.84;;;9.16;50.46
36664;BME280;53333;51.976;20.144;2023-04-27T06:25:10;100391.16;;;9.31;49.97
36664;BME280;53333;51.976;20.144;2023-04-27T06:27:44;100393.41;;;9.41;49.58
36664;BME280;53333;51.976;20.144;2023-04-27T06:30:17;100393.91;;;9.51;49.29
36664;BME280;53333;51.976;20.144;2023-04-27T06:32:51;100393.31;;;9.65;49.20
36664;BME280;53333;51.976;20.144;2023-04-27T06:35:24;100391.00;;;9.78;48.75
36664;BME280;53333;51.976;20.144;2023-04-27T06:37:57;100389.63;;;9.90;48.54
36664;BME280;53333;51.976;20.144;2023-04-27T06:40:30;100401.59;;;10.02;48.54
36664;BME280;53333;51.976;20.144;2023-04-27T06:43:03;100408.16;;;10.15;48.18
36664;BME280;53333;51.976;20.144;2023-04-27T06:45:36;100405.75;;;10.29;47.98
36664;BME280;53333;51.976;20.144;2023-04-27T06:48:10;100410.69;;;10.39;47.45
36664;BME280;53333;51.976;20.144;2023-04-27T06:50:43;100408.72;;;10.44;47.18
36664;BME280;53333;51.976;20.144;2023-04-27T06:53:16;100406.56;;;10.52;47.44
36664;BME280;53333;51.976;20.144;2023-04-27T06:55:49;100411.38;;;10.64;47.00
36664;BME280;53333;51.976;20.144;2023-04-27T06:58:22;100408.19;;;10.75;46.82
36664;BME280;53333;51.976;20.144;2023-04-27T07:00:55;100406.25;;;10.79;46.53
36664;BME280;53333;51.976;20.144;2023-04-27T07:03:29;100414.72;;;10.88;46.48
36664;BME280;53333;51.976;20.144;2023-04-27T07:06:03;100412.34;;;11.01;46.05
36664;BME280;53333;51.976;20.144;2023-04-27T07:08:36;100412.06;;;11.07;45.74
36664;BME280;53333;51.976;20.144;2023-04-27T07:11:09;100409.09;;;11.14;45.94
36664;BME280;53333;51.976;20.144;2023-04-27T07:13:42;100408.72;;;11.21;45.49
36664;BME280;53333;51.976;20.144;2023-04-27T07:16:15;100403.78;;;11.31;45.44
36664;BME280;53333;51.976;20.144;2023-04-27T07:18:49;100408.34;;;11.48;45.65
36664;BME280;53333;51.976;20.144;2023-04-27T07:21:22;100410.31;;;11.81;45.27
36664;BME280;53333;51.976;20.144;2023-04-27T07:23:55;100409.97;;;12.06;44.33
36664;BME280;53333;51.976;20.144;2023-04-27T07:26:28;100415.50;;;12.21;44.10
36664;BME280;53333;51.976;20.144;2023-04-27T07:29:03;100409.38;;;12.34;43.84
36664;BME280;53333;51.976;20.144;2023-04-27T07:31:50;100405.22;;;12.46;43.51
36664;BME280;53333;51.976;20.144;2023-04-27T07:34:24;100407.19;;;12.76;43.82
36664;BME280;53333;51.976;20.144;2023-04-27T07:37:01;100411.72;;;12.92;43.29
36664;BME280;53333;51.976;20.144;2023-04-27T07:39:34;100410.41;;;13.16;42.89
36664;BME280;53333;51.976;20.144;2023-04-27T07:42:07;100405.16;;;13.47;41.76
36664;BME280;53333;51.976;20.144;2023-04-27T07:44:40;100406.25;;;13.74;41.19
36664;BME280;53333;51.976;20.144;2023-04-27T07:47:14;100411.28;;;14.11;40.75
36664;BME280;53333;51.976;20.144;2023-04-27T07:49:48;100410.50;;;14.53;40.59
36664;BME280;53333;51.976;20.144;2023-04-27T07:52:21;100406.59;;;14.74;39.51
36664;BME280;53333;51.976;20.144;2023-04-27T07:54:54;100410.56;;;14.82;39.08
36664;BME280;53333;51.976;20.144;2023-04-27T07:57:27;100410.66;;;14.95;38.97
36664;BME280;53333;51.976;20.144;2023-04-27T08:00:00;100409.09;;;14.91;38.46
36664;BME280;53333;51.976;20.144;2023-04-27T08:02:43;100422.06;;;14.70;38.72
36664;BME280;53333;51.976;20.144;2023-04-27T08:05:18;100415.69;;;14.26;38.57
36664;BME280;53333;51.976;20.144;2023-04-27T08:07:52;100420.44;;;13.76;39.21
36664;BME280;53333;51.976;20.144;2023-04-27T08:10:25;100417.66;;;13.30;39.85
36664;BME280;53333;51.976;20.144;2023-04-27T08:12:59;100422.53;;;12.90;40.34
36664;BME280;53333;51.976;20.144;2023-04-27T08:15:31;100424.34;;;12.56;40.84
36664;BME280;53333;51.976;20.144;2023-04-27T08:18:04;100421.16;;;12.32;41.17
36664;BME280;53333;51.976;20.144;2023-04-27T08:20:39;100422.56;;;12.22;41.35
36664;BME280;53333;51.976;20.144;2023-04-27T08:23:12;100427.66;;;12.44;41.86
36664;BME280;53333;51.976;20.144;2023-04-27T08:25:45;100426.75;;;12.78;41.13
36664;BME280;53333;51.976;20.144;2023-04-27T08:28:19;100421.19;;;12.99;40.71
36664;BME280;53333;51.976;20.144;2023-04-27T08:30:51;100428.56;;;13.27;40.08
36664;BME280;53333;51.976;20.144;2023-04-27T08:33:24;100426.00;;;13.57;39.67
36664;BME280;53333;51.976;20.144;2023-04-27T08:35:58;100425.47;;;14.13;39.43
36664;BME280;53333;51.976;20.144;2023-04-27T08:38:33;100424.72;;;15.69;37.83
36664;BME280;53333;51.976;20.144;2023-04-27T08:41:06;100413.63;;;16.41;36.17
36664;BME280;53333;51.976;20.144;2023-04-27T08:43:52;100417.78;;;18.21;33.61
36664;BME280;53333;51.976;20.144;2023-04-27T08:46:25;100412.47;;;20.00;31.74
36664;BME280;53333;51.976;20.144;2023-04-27T08:48:58;100414.94;;;21.18;29.77
36664;BME280;53333;51.976;20.144;2023-04-27T08:51:33;100414.56;;;20.92;28.95
36664;BME280;53333;51.976;20.144;2023-04-27T08:54:06;100410.72;;;20.31;29.92
36664;BME280;53333;51.976;20.144;2023-04-27T08:56:39;100415.88;;;20.77;29.52
36664;BME280;53333;51.976;20.144;2023-04-27T08:59:13;100412.69;;;20.29;29.75
36664;BME280;53333;51.976;20.144;2023-04-27T09:01:48;100417.72;;;19.69;30.05
36664;BME280;53333;51.976;20.144;2023-04-27T09:04:21;100428.03;;;19.20;31.75
36664;BME280;53333;51.976;20.144;2023-04-27T09:06:56;100430.41;;;18.56;31.33
36664;BME280;53333;51.976;20.144;2023-04-27T09:09:29;100431.50;;;18.06;31.92
36664;BME280;53333;51.976;20.144;2023-04-27T09:12:12;100425.47;;;18.14;31.93
36664;BME280;53333;51.976;20.144;2023-04-27T09:14:55;100421.38;;;20.44;29.57
36664;BME280;53333;51.976;20.144;2023-04-27T09:17:29;100419.84;;;22.53;26.74
36664;BME280;53333;51.976;20.144;2023-04-27T09:20:06;100417.00;;;21.96;26.32
36664;BME280;53333;51.976;20.144;2023-04-27T09:22:46;100411.97;;;21.31;26.12
36664;BME280;53333;51.976;20.144;2023-04-27T09:25:26;100409.53;;;22.08;25.39
36664;BME280;53333;51.976;20.144;2023-04-27T09:28:00;100413.88;;;22.30;25.32
36664;BME280;53333;51.976;20.144;2023-04-27T09:30:33;100408.31;;;21.01;25.96
36664;BME280;53333;51.976;20.144;2023-04-27T09:33:07;100423.22;;;19.90;26.99
36664;BME280;53333;51.976;20.144;2023-04-27T09:35:41;100416.81;;;18.80;28.44
36664;BME280;53333;51.976;20.144;2023-04-27T09:38:15;100413.72;;;17.91;29.97
36664;BME280;53333;51.976;20.144;2023-04-27T09:40:49;100419.28;;;17.02;30.36
36664;BME280;53333;51.976;20.144;2023-04-27T09:43:22;100419.75;;;17.94;29.92
36664;BME280;53333;51.976;20.144;2023-04-27T09:45:55;100414.16;;;19.57;28.45
36664;BME280;53333;51.976;20.144;2023-04-27T09:48:28;100402.94;;;21.62;27.42
36664;BME280;53333;51.976;20.144;2023-04-27T09:51:01;100403.59;;;23.46;25.16
36664;BME280;53333;51.976;20.144;2023-04-27T09:53:39;100397.66;;;25.46;22.58
36664;BME280;53333;51.976;20.144;2023-04-27T09:56:22;100399.84;;;26.59;21.41
36664;BME280;53333;51.976;20.144;2023-04-27T09:59:16;100406.19;;;25.43;21.77
36664;BME280;53333;51.976;20.144;2023-04-27T10:01:53;100403.31;;;24.13;22.25
36664;BME280;53333;51.976;20.144;2023-04-27T10:05:12;100410.06;;;22.70;23.13
36664;BME280;53333;51.976;20.144;2023-04-27T10:07:48;100410.72;;;21.45;24.03
36664;BME280;53333;51.976;20.144;2023-04-27T10:10:25;100411.66;;;20.42;24.62
36664;BME280;53333;51.976;20.144;2023-04-27T10:13:00;100415.22;;;19.22;25.85
36664;BME280;53333;51.976;20.144;2023-04-27T10:15:38;100411.03;;;18.26;27.48
36664;BME280;53333;51.976;20.144;2023-04-27T10:18:11;100423.31;;;17.34;27.98
36664;BME280;53333;51.976;20.144;2023-04-27T10:20:44;100427.09;;;16.41;29.08
36664;BME280;53333;51.976;20.144;2023-04-27T10:23:21;100420.97;;;15.72;29.82
36664;BME280;53333;51.976;20.144;2023-04-27T10:26:06;100429.34;;;15.82;29.80
36664;BME280;53333;51.976;20.144;2023-04-27T10:28:39;100422.59;;;16.02;29.57
36664;BME280;53333;51.976;20.144;2023-04-27T10:31:13;100428.28;;;15.97;29.89
36664;BME280;53333;51.976;20.144;2023-04-27T10:33:46;100431.25;;;15.65;30.67
36664;BME280;53333;51.976;20.144;2023-04-27T10:36:19;100424.81;;;15.26;30.94
36664;BME280;53333;51.976;20.144;2023-04-27T10:38:55;100437.44;;;14.82;31.53
36664;BME280;53333;51.976;20.144;2023-04-27T10:41:34;100436.09;;;14.45;31.93
36664;BME280;53333;51.976;20.144;2023-04-27T10:44:13;100432.22;;;14.20;32.51
36664;BME280;53333;51.976;20.144;2023-04-27T10:46:52;100436.06;;;14.00;33.08
36664;BME280;53333;51.976;20.144;2023-04-27T10:49:26;100438.69;;;13.86;33.16
36664;BME280;53333;51.976;20.144;2023-04-27T10:51:59;100439.13;;;13.78;33.24
36664;BME280;53333;51.976;20.144;2023-04-27T10:54:35;100437.94;;;13.84;33.04
36664;BME280;53333;51.976;20.144;2023-04-27T10:57:11;100433.91;;;13.91;32.90
36664;BME280;53333;51.976;20.144;2023-04-27T10:59:49;100432.53;;;13.99;32.58
36664;BME280;53333;51.976;20.144;2023-04-27T11:02:27;100436.56;;;14.07;32.94
36664;BME280;53333;51.976;20.144;2023-04-27T11:05:00;100444.09;;;14.16;33.25
36664;BME280;53333;51.976;20.144;2023-04-27T11:07:38;100432.13;;;14.22;33.76
36664;BME280;53333;51.976;20.144;2023-04-27T11:10:14;100429.47;;;14.36;33.55
36664;BME280;53333;51.976;20.144;2023-04-27T11:12:49;100435.47;;;14.56;33.07
36664;BME280;53333;51.976;20.144;2023-04-27T11:15:21;100437.91;;;14.89;32.32
36664;BME280;53333;51.976;20.144;2023-04-27T11:18:03;100431.81;;;15.43;32.01
36664;BME280;53333;51.976;20.144;2023-04-27T11:20:36;100431.53;;;16.42;30.90
36664;BME280;53333;51.976;20.144;2023-04-27T11:23:09;100427.41;;;17.39;29.60
36664;BME280;53333;51.976;20.144;2023-04-27T11:25:42;100425.28;;;18.28;29.74
36664;BME280;53333;51.976;20.144;2023-04-27T11:28:17;100423.97;;;19.15;28.46
36664;BME280;53333;51.976;20.144;2023-04-27T11:30:57;100417.34;;;19.74;28.20
36664;BME280;53333;51.976;20.144;2023-04-27T11:33:31;100412.25;;;19.92;27.35
36664;BME280;53333;51.976;20.144;2023-04-27T11:36:29;100422.47;;;20.00;26.78
36664;BME280;53333;51.976;20.144;2023-04-27T11:39:03;100413.56;;;20.09;26.41
36664;BME280;53333;51.976;20.144;2023-04-27T11:41:38;100410.66;;;19.89;26.12
36664;BME280;53333;51.976;20.144;2023-04-27T11:44:17;100415.16;;;19.68;26.13
36664;BME280;53333;51.976;20.144;2023-04-27T11:46:50;100426.66;;;19.37;26.04
36664;BME280;53333;51.976;20.144;2023-04-27T11:49:24;100431.22;;;18.92;26.31
36664;BME280;53333;51.976;20.144;2023-04-27T11:51:58;100436.78;;;18.43;26.78
36664;BME280;53333;51.976;20.144;2023-04-27T11:54:32;100430.78;;;17.91;26.77
36664;BME280;53333;51.976;20.144;2023-04-27T11:57:06;100437.03;;;17.31;27.51
36664;BME280;53333;51.976;20.144;2023-04-27T11:59:41;100437.69;;;16.70;27.92
36664;BME280;53333;51.976;20.144;2023-04-27T12:02:14;100445.41;;;16.23;28.40
36664;BME280;53333;51.976;20.144;2023-04-27T12:04:47;100446.53;;;15.79;28.87
36664;BME280;53333;51.976;20.144;2023-04-27T12:07:21;100448.72;;;15.45;29.57
36664;BME280;53333;51.976;20.144;2023-04-27T12:09:54;100454.06;;;15.18;30.06
36664;BME280;53333;51.976;20.144;2023-04-27T12:12:29;100452.50;;;14.99;30.53
36664;BME280;53333;51.976;20.144;2023-04-27T12:15:05;100451.28;;;14.91;30.73
36664;BME280;53333;51.976;20.144;2023-04-27T12:17:39;100446.94;;;14.88;30.66
36664;BME280;53333;51.976;20.144;2023-04-27T12:20:12;100448.41;;;14.94;31.05
36664;BME280;53333;51.976;20.144;2023-04-27T12:22:45;100449.44;;;15.05;30.93
36664;BME280;53333;51.976;20.144;2023-04-27T12:25:18;100443.56;;;15.13;30.95
36664;BME280;53333;51.976;20.144;2023-04-27T12:27:51;100445.78;;;15.21;30.67
36664;BME280;53333;51.976;20.144;2023-04-27T12:30:26;100441.91;;;15.25;30.92
36664;BME280;53333;51.976;20.144;2023-04-27T12:32:59;100445.59;;;15.24;31.01
36664;BME280;53333;51.976;20.144;2023-04-27T12:35:33;100448.47;;;15.21;30.67
36664;BME280;53333;51.976;20.144;2023-04-27T12:38:06;100450.78;;;15.13;30.74
36664;BME280;53333;51.976;20.144;2023-04-27T12:40:38;100446.38;;;15.12;31.12
36664;BME280;53333;51.976;20.144;2023-04-27T12:43:11;100447.91;;;15.16;30.98
36664;BME280;53333;51.976;20.144;2023-04-27T12:45:46;100451.38;;;15.18;30.93
36664;BME280;53333;51.976;20.144;2023-04-27T12:48:19;100456.47;;;15.22;31.12
36664;BME280;53333;51.976;20.144;2023-04-27T12:50:53;100453.84;;;15.21;31.82
36664;BME280;53333;51.976;20.144;2023-04-27T12:53:27;100449.16;;;15.10;31.56
36664;BME280;53333;51.976;20.144;2023-04-27T12:56:00;100457.97;;;14.98;31.62
36664;BME280;53333;51.976;20.144;2023-04-27T12:58:34;100463.16;;;14.86;31.85
36664;BME280;53333;51.976;20.144;2023-04-27T13:01:09;100460.75;;;14.82;31.76
36664;BME280;53333;51.976;20.144;2023-04-27T13:03:46;100452.97;;;14.77;31.69
36664;BME280;53333;51.976;20.144;2023-04-27T13:06:20;100459.72;;;14.84;31.80
36664;BME280;53333;51.976;20.144;2023-04-27T13:08:53;100459.81;;;14.83;31.22
36664;BME280;53333;51.976;20.144;2023-04-27T13:11:26;100459.69;;;14.70;30.79
36664;BME280;53333;51.976;20.144;2023-04-27T13:14:00;100461.72;;;14.66;31.22
36664;BME280;53333;51.976;20.144;2023-04-27T13:16:34;100473.09;;;14.56;31.31
36664;BME280;53333;51.976;20.144;2023-04-27T13:19:08;100461.25;;;14.58;31.36
36664;BME280;53333;51.976;20.144;2023-04-27T13:21:41;100463.00;;;14.59;31.00